Time;durP1;ratioP1;P1;durP2;ratioP2;P2;SDS_P1;SDS_P2;PMS_P1;PMS_P2;Temp;Humidity;BMP_temperature;BMP_pressure;BME280_temperature;BME280_humidity;BME280_pressure;Samples;Min_cycle;Max_cycle;Signal;HPM_P1;HPM_P2
2021/05/29 00:00:18;;;;;;;;;;;11.00;99.90;;;9.74;78.14;96165.78;10588010;28;1872;-85
2021/05/29 00:05:21;;;;;;;;;;;10.90;99.90;;;9.73;78.18;96158.81;10608272;28;1366;-85
2021/05/29 00:10:24;;;;;;;;;;;10.90;99.90;;;9.77;78.93;96142.16;10587607;28;1732;-83
2021/05/29 00:15:28;;;;;;;;;;;10.80;99.90;;;9.83;78.93;96146.50;10592769;28;2135;-85
2021/05/29 00:20:32;;;;;;;;;;;10.80;99.90;;;9.83;78.93;96130.41;10584022;28;1454;-85
2021/05/29 00:25:48;;;;;;;;;;;10.90;99.90;;;9.85;79.14;96147.84;10589433;28;1376;-83
2021/05/29 00:31:05;;;;;;;;;;;10.90;99.90;;;9.82;78.63;96147.56;10566343;28;1482;-83
2021/05/29 00:36:08;;;;;;;;;;;10.90;99.90;;;9.79;79.35;96140.03;10582322;28;1894;-84
2021/05/29 00:41:11;;;;;;;;;;;10.90;99.90;;;9.85;78.89;96144.34;10574604;28;1781;-85
2021/05/29 00:46:26;;;;;;;;;;;10.90;99.90;;;9.78;79.27;96149.97;10587057;28;1776;-83
2021/05/29 00:51:29;;;;;;;;;;;10.90;99.90;;;9.63;79.67;96142.63;10589261;28;1957;-84
2021/05/29 01:01:52;;;;;;;;;;;10.80;99.90;;;9.55;80.59;96139.63;10564015;28;2039;-84
2021/05/29 01:07:06;;;;;;;;;;;10.70;99.90;;;9.50;81.05;96131.53;10568174;28;2134;-83
2021/05/29 01:12:10;;;;;;;;;;;10.70;99.90;;;9.57;79.88;96130.25;10572497;28;1260;-84
2021/05/29 01:17:13;;;;;;;;;;;10.70;99.90;;;9.60;79.96;96118.97;10559746;28;1906;-84
2021/05/29 01:22:16;;;;;;;;;;;10.70;99.90;;;9.57;80.31;96121.38;10579652;28;2223;-85
2021/05/29 01:27:19;;;;;;;;;;;10.70;99.90;;;9.53;79.98;96115.72;10574913;28;1760;-85
2021/05/29 01:32:23;;;;;;;;;;;10.60;99.90;;;9.56;79.26;96115.22;10592939;28;1645;-84
2021/05/29 01:48:54;;;;;;;;;;;10.70;99.90;;;9.44;81.39;96101.97;10569859;28;2246;-82
2021/05/29 01:59:17;;;;;;;;;;;10.50;99.90;;;9.36;82.21;96109.69;10566177;28;1909;-81
2021/05/29 02:04:20;;;;;;;;;;;10.50;99.90;;;9.35;82.17;96127.69;10579031;28;2005;-84
2021/05/29 02:09:22;;;;;;;;;;;10.50;99.90;;;9.37;82.25;96119.38;10569921;28;2116;-84
2021/05/29 02:14:26;;;;;;;;;;;10.40;99.90;;;9.38;82.23;96108.38;10584506;28;1349;-83
2021/05/29 02:19:28;;;;;;;;;;;10.50;99.90;;;9.33;82.15;96115.56;10587691;28;2101;-83
2021/05/29 02:24:32;;;;;;;;;;;10.50;99.90;;;9.38;82.34;96112.94;10591094;28;1610;-83
2021/05/29 02:29:35;;;;;;;;;;;10.40;99.90;;;9.34;82.72;96112.63;10580404;28;1801;-83
2021/05/29 02:34:37;;;;;;;;;;;10.40;99.90;;;9.32;82.50;96114.75;10582933;28;1574;-85
2021/05/29 02:39:41;;;;;;;;;;;10.40;99.90;;;9.32;82.61;96113.97;10599864;28;1902;-84
2021/05/29 02:44:43;;;;;;;;;;;10.40;99.90;;;9.35;82.45;96113.44;10591318;28;1625;-85
2021/05/29 02:49:46;;;;;;;;;;;10.40;99.90;;;9.34;82.81;96107.25;10587600;28;1591;-85
2021/05/29 02:54:55;;;;;;;;;;;10.40;99.90;;;9.32;82.62;96108.59;10584934;28;2069;-82
2021/05/29 03:00:02;;;;;;;;;;;10.40;99.90;;;9.31;82.40;96117.72;10583643;28;1963;-84
2021/05/29 03:05:05;;;;;;;;;;;10.40;99.90;;;9.27;82.75;96105.88;10592517;27;2256;-82
2021/05/29 03:10:08;;;;;;;;;;;10.40;99.90;;;9.20;82.83;96106.88;10599033;28;1662;-84
2021/05/29 03:15:10;;;;;;;;;;;10.30;99.90;;;9.24;83.13;96122.47;10585636;28;2110;-84
2021/05/29 03:20:13;;;;;;;;;;;10.30;99.90;;;9.14;83.66;96128.56;10583617;28;2179;-84
2021/05/29 03:25:15;;;;;;;;;;;10.30;99.90;;;9.13;83.49;96122.38;10594374;27;2071;-83
2021/05/29 03:30:18;;;;;;;;;;;10.20;99.90;;;9.11;83.53;96124.53;10601884;28;2151;-82
2021/05/29 03:35:21;;;;;;;;;;;10.20;99.90;;;9.23;83.25;96120.88;10575374;28;1689;-84
2021/05/29 03:40:23;;;;;;;;;;;10.20;99.90;;;9.21;82.75;96140.69;10572095;28;2138;-83
2021/05/29 03:45:26;;;;;;;;;;;10.30;99.90;;;9.17;83.08;96144.97;10579939;28;1238;-81
2021/05/29 03:50:28;;;;;;;;;;;10.20;99.90;;;9.20;82.91;96159.72;10569982;28;1606;-84
2021/05/29 03:55:32;;;;;;;;;;;10.20;99.90;;;9.28;83.34;96150.41;10600961;27;1898;-82
2021/05/29 04:00:34;;;;;;;;;;;10.30;99.90;;;9.14;81.59;96156.19;10573064;28;2060;-83
2021/05/29 04:05:37;;;;;;;;;;;10.20;99.90;;;9.32;82.39;96159.56;10587962;28;1561;-84
2021/05/29 04:10:39;;;;;;;;;;;10.30;99.90;;;9.44;81.46;96169.06;10580036;28;1896;-84
2021/05/29 04:15:44;;;;;;;;;;;10.40;99.90;;;9.61;80.43;96168.94;10572275;28;2329;-85
2021/05/29 04:21:14;;;;;;;;;;;10.50;99.90;;;9.74;79.27;96171.16;10601611;28;2087;-84
2021/05/29 04:26:17;;;;;;;;;;;10.70;99.90;;;9.72;78.85;96173.28;10591421;28;1856;-83
2021/05/29 04:31:20;;;;;;;;;;;10.70;99.90;;;9.74;79.38;96179.22;10581125;28;1379;-84
2021/05/29 04:36:23;;;;;;;;;;;10.70;99.90;;;9.87;77.97;96185.22;10583293;28;1894;-84
2021/05/29 04:41:26;;;;;;;;;;;10.80;99.90;;;9.70;76.01;96188.84;10601579;28;1658;-84
2021/05/29 04:46:28;;;;;;;;;;;10.80;99.90;;;10.03;74.66;96178.84;10572888;28;2084;-83
2021/05/29 04:51:31;;;;;;;;;;;10.90;99.90;;;9.98;74.13;96186.88;10574122;28;2108;-84
2021/05/29 04:56:33;;;;;;;;;;;11.00;99.90;;;10.11;73.94;96181.03;10590367;28;1913;-84
2021/05/29 05:01:36;;;;;;;;;;;11.00;99.90;;;10.25;72.53;96184.91;10578561;28;1810;-84
2021/05/29 05:06:38;;;;;;;;;;;11.10;99.90;;;11.02;69.76;96177.94;10596245;28;1977;-84
2021/05/29 05:11:41;;;;;;;;;;;11.50;99.90;;;11.13;67.58;96183.31;10577901;28;1638;-84
2021/05/29 05:16:44;;;;;;;;;;;11.90;99.90;;;11.12;67.33;96190.56;10589619;28;2141;-83
2021/05/29 05:21:46;;;;;;;;;;;11.90;99.90;;;11.16;66.83;96178.22;10575956;28;2048;-84
2021/05/29 05:26:49;;;;;;;;;;;12.10;99.90;;;11.27;65.32;96177.16;10588834;28;2144;-84
2021/05/29 05:31:51;;;;;;;;;;;12.20;99.90;;;12.25;62.96;96173.31;10571831;28;1670;-84
2021/05/29 05:36:54;;;;;;;;;;;12.60;99.90;;;12.92;61.52;96174.66;10574975;28;2108;-83
2021/05/29 05:41:56;;;;;;;;;;;13.40;99.90;;;13.19;59.46;96178.81;10581395;28;1824;-83
2021/05/29 05:46:59;;;;;;;;;;;13.80;99.90;;;12.71;60.15;96181.22;10570774;28;2109;-82
2021/05/29 05:52:01;;;;;;;;;;;13.70;99.90;;;12.80;61.44;96178.78;10595419;28;1873;-84
2021/05/29 05:57:04;;;;;;;;;;;13.60;99.90;;;12.78;59.42;96176.31;10566011;28;1926;-84
2021/05/29 06:02:07;;;;;;;;;;;13.80;99.90;;;13.38;58.41;96187.09;10592515;28;1888;-84
2021/05/29 06:07:09;;;;;;;;;;;14.00;99.90;;;13.71;57.49;96186.28;10584773;28;2161;-84
2021/05/29 06:12:12;;;;;;;;;;;14.40;99.90;;;14.06;55.37;96198.69;10567191;28;2243;-84
2021/05/29 06:22:49;;;;;;;;;;;14.60;99.90;;;14.14;56.34;96189.13;10557628;28;2270;-83
2021/05/29 06:28:07;;;;;;;;;;;14.90;99.90;;;13.92;54.06;96186.91;10598651;28;1995;-85
2021/05/29 06:33:17;;;;;;;;;;;14.90;99.90;;;14.37;53.19;96192.94;10608578;28;1655;-84
2021/05/29 06:43:41;;;;;;;;;;;15.10;99.90;;;13.87;54.69;96191.53;10577084;27;1579;-85
2021/05/29 06:48:44;;;;;;;;;;;14.90;99.90;;;13.61;54.25;96199.06;10589479;28;1924;-82
2021/05/29 06:53:49;;;;;;;;;;;14.80;99.90;;;13.90;55.47;96199.09;10569510;28;2145;-83
2021/05/29 06:58:53;;;;;;;;;;;14.80;99.90;;;14.54;52.33;96208.75;10579927;28;2048;-82
2021/05/29 07:03:56;;;;;;;;;;;15.20;99.90;;;15.49;49.67;96204.25;10578933;28;1299;-84
2021/05/29 07:09:12;;;;;;;;;;;15.90;99.90;;;15.72;47.58;96208.00;10566665;28;1808;-84
2021/05/29 07:14:25;;;;;;;;;;;16.20;99.90;;;15.85;47.06;96215.38;10564919;28;1280;-84
2021/05/29 07:19:31;;;;;;;;;;;16.50;99.90;;;15.58;46.49;96205.97;10579517;28;1905;-84
2021/05/29 07:24:35;;;;;;;;;;;16.80;99.90;;;16.34;46.03;96206.63;10589783;28;1385;-86
2021/05/29 07:29:52;;;;;;;;;;;16.60;99.90;;;15.92;46.69;96200.34;10571058;28;2031;-86
2021/05/29 07:34:55;;;;;;;;;;;16.90;99.90;;;15.95;46.96;96207.84;10595299;27;1842;-83
2021/05/29 07:51:35;;;;;;;;;;;16.80;99.90;;;15.73;44.12;96217.75;10570108;28;1834;-85
2021/05/29 08:02:24;;;;;;;;;;;16.90;99.90;;;16.01;43.96;96213.19;10564519;28;2012;-84
2021/05/29 08:07:27;;;;;;;;;;;17.00;98.90;;;15.51;44.47;96215.59;10577179;28;1481;-84
2021/05/29 08:12:44;;;;;;;;;;;16.80;98.20;;;15.71;44.07;96211.78;10593906;27;2019;-86
2021/05/29 08:17:48;;;;;;;;;;;16.60;97.60;;;15.67;44.14;96217.81;10588162;27;1923;-85
2021/05/29 08:23:03;;;;;;;;;;;16.60;96.80;;;16.07;39.31;96210.09;10610417;27;1686;-83
2021/05/29 08:28:05;;;;;;;;;;;17.00;91.60;;;16.32;39.56;96206.13;10593247;28;1917;-81
2021/05/29 08:33:08;;;;;;;;;;;17.10;90.80;;;16.10;42.37;96217.66;10600277;28;2313;-84
2021/05/29 08:38:10;;;;;;;;;;;17.00;92.50;;;16.66;39.66;96208.47;10601402;27;1971;-86
2021/05/29 08:43:13;;;;;;;;;;;17.30;90.50;;;16.64;39.16;96201.75;10604059;28;2030;-86
2021/05/29 08:48:15;;;;;;;;;;;17.70;88.10;;;17.63;37.55;96197.47;10593007;28;1718;-85
2021/05/29 08:53:18;;;;;;;;;;;18.00;87.90;;;17.89;37.44;96192.25;10615849;27;1343;-86
2021/05/29 08:58:21;;;;;;;;;;;18.40;86.60;;;16.54;37.93;96191.91;10607765;27;2147;-83
2021/05/29 09:03:23;;;;;;;;;;;18.40;81.80;;;16.23;37.65;96207.94;10590204;28;1689;-86
2021/05/29 09:08:26;;;;;;;;;;;17.70;80.90;;;16.47;37.11;96191.47;10594533;28;1283;-82
2021/05/29 09:13:32;;;;;;;;;;;17.40;81.20;;;17.63;34.88;96186.59;10601945;27;1912;-86
2021/05/29 09:24:21;;;;;;;;;;;18.10;74.90;;;17.41;34.88;96195.53;10600394;27;2084;-82
2021/05/29 09:29:25;;;;;;;;;;;18.00;77.20;;;17.61;34.53;96208.63;10624948;27;1585;-83
2021/05/29 09:34:40;;;;;;;;;;;18.60;76.40;;;18.39;32.58;96202.94;10613487;28;1502;-82
2021/05/29 09:39:44;;;;;;;;;;;18.90;74.70;;;17.56;33.24;96203.34;10584289;27;1933;-83
2021/05/29 09:44:46;;;;;;;;;;;19.00;72.10;;;17.93;33.20;96207.63;10591884;28;1985;-81
2021/05/29 09:49:49;;;;;;;;;;;18.70;73.00;;;18.26;34.78;96205.44;10586662;28;1991;-82
2021/05/29 09:54:52;;;;;;;;;;;19.10;74.30;;;17.62;34.11;96206.72;10584038;28;1414;-83
2021/05/29 09:59:54;;;;;;;;;;;19.10;72.10;;;18.26;34.17;96208.16;10569528;28;2099;-81
2021/05/29 10:04:57;;;;;;;;;;;19.20;73.00;;;18.02;35.49;96210.41;10585146;28;2189;-82
2021/05/29 10:09:59;;;;;;;;;;;18.80;74.10;;;17.26;37.07;96216.50;10566146;28;2023;-83
2021/05/29 10:15:01;;;;;;;;;;;18.40;74.90;;;17.52;36.43;96208.56;10565691;28;1702;-82
2021/05/29 10:20:04;;;;;;;;;;;18.30;75.10;;;18.01;35.65;96189.78;10561972;28;2153;-79
2021/05/29 10:25:10;;;;;;;;;;;18.60;75.30;;;17.05;37.76;96204.47;10589927;28;1970;-82
2021/05/29 10:30:24;;;;;;;;;;;18.60;74.80;;;16.96;38.47;96209.78;10581662;28;2034;-82
2021/05/29 10:35:26;;;;;;;;;;;18.20;75.50;;;18.02;36.36;96194.09;10596781;28;2036;-81
2021/05/29 10:40:30;;;;;;;;;;;19.00;74.60;;;18.02;36.52;96218.56;10605580;28;2026;-82
2021/05/29 10:45:32;;;;;;;;;;;19.30;74.10;;;17.48;37.03;96206.75;10578974;28;2119;-81
2021/05/29 10:50:35;;;;;;;;;;;18.80;74.10;;;18.79;34.22;96199.13;10580946;28;1642;-81
2021/05/29 10:55:37;;;;;;;;;;;20.00;72.30;;;20.14;33.42;96201.00;10590328;28;1759;-83
2021/05/29 11:00:41;;;;;;;;;;;21.60;71.10;;;20.55;30.65;96192.25;10579634;28;2050;-81
2021/05/29 11:05:57;;;;;;;;;;;22.50;66.70;;;21.31;29.94;96186.75;10578638;28;2035;-83
2021/05/29 11:11:01;;;;;;;;;;;23.10;65.80;;;19.58;32.26;96191.91;10584518;28;1891;-81
2021/05/29 11:16:15;;;;;;;;;;;22.30;64.20;;;18.26;34.58;96188.31;10580613;28;1770;-83
2021/05/29 11:21:18;;;;;;;;;;;20.30;66.50;;;19.59;32.23;96186.13;10600075;28;2008;-81
2021/05/29 11:26:21;;;;;;;;;;;20.60;67.00;;;19.09;33.22;96191.19;10609107;28;2145;-81
2021/05/29 11:31:27;;;;;;;;;;;20.70;66.50;;;18.54;35.11;96189.72;10591739;28;2059;-79
2021/05/29 11:42:15;;;;;;;;;;;18.90;69.30;;;16.89;36.34;96184.97;10601626;28;1797;-85
2021/05/29 11:47:17;;;;;;;;;;;18.20;69.30;;;18.01;35.44;96173.44;10579280;28;1839;-85
2021/05/29 11:52:20;;;;;;;;;;;18.80;69.80;;;18.92;33.94;96178.34;10614894;27;1377;-85
2021/05/29 11:57:23;;;;;;;;;;;19.70;68.70;;;20.47;30.97;96165.75;10610091;27;2089;-86
2021/05/29 12:02:25;;;;;;;;;;;20.50;67.40;;;20.17;30.55;96168.41;10591699;28;1683;-81
2021/05/29 12:07:41;;;;;;;;;;;20.90;64.40;;;20.74;29.64;96159.03;10608906;28;2020;-80
2021/05/29 12:12:45;;;;;;;;;;;21.60;63.50;;;19.34;29.41;96167.81;10610020;28;2074;-79
2021/05/29 12:18:19;;;;;;;;;;;21.00;60.40;;;18.75;31.58;96157.28;10600711;28;2108;-81
2021/05/29 12:23:22;;;;;;;;;;;19.80;62.70;;;18.82;30.16;96165.00;10585662;28;2243;-81
2021/05/29 12:28:25;;;;;;;;;;;20.00;61.50;;;18.43;30.01;96169.31;10584030;28;1869;-82
2021/05/29 12:33:54;;;;;;;;;;;19.70;60.20;;;19.59;30.20;96158.84;10590278;28;1842;-78
2021/05/29 12:38:59;;;;;;;;;;;19.80;62.70;;;19.69;30.56;96160.47;10605385;27;1975;-80
2021/05/29 12:44:02;;;;;;;;;;;20.20;62.70;;;19.09;32.32;96170.19;10587948;28;2051;-77
2021/05/29 12:49:04;;;;;;;;;;;20.60;62.90;;;18.20;34.28;96168.59;10584170;28;1984;-80
2021/05/29 12:54:06;;;;;;;;;;;19.70;64.30;;;18.03;34.02;96169.28;10576806;28;2169;-81
2021/05/29 12:59:09;;;;;;;;;;;19.20;64.50;;;19.71;31.48;96178.09;10586321;28;1890;-78
2021/05/29 13:09:46;;;;;;;;;;;19.90;63.60;;;17.72;35.21;96163.81;10575907;28;2298;-78
2021/05/29 13:14:49;;;;;;;;;;;19.10;65.40;;;17.50;35.08;96174.66;10560625;28;1665;-81
2021/05/29 13:19:53;;;;;;;;;;;18.70;65.90;;;17.56;35.29;96171.53;10563652;28;2060;-80
2021/05/29 13:25:07;;;;;;;;;;;18.50;66.70;;;17.78;35.03;96178.88;10578412;28;2119;-81
2021/05/29 13:30:10;;;;;;;;;;;18.40;67.00;;;17.53;35.12;96182.19;10578853;28;2078;-79
2021/05/29 13:35:12;;;;;;;;;;;18.40;66.10;;;18.03;34.13;96174.72;10580504;28;1947;-80
2021/05/29 13:40:14;;;;;;;;;;;18.60;66.00;;;19.01;32.81;96170.97;10574518;28;1959;-80
2021/05/29 13:45:19;;;;;;;;;;;19.50;65.30;;;19.23;32.45;96166.53;10563826;28;2015;-79
2021/05/29 13:50:21;;;;;;;;;;;20.00;64.40;;;19.03;33.00;96168.75;10567951;28;1545;-80
2021/05/29 13:55:25;;;;;;;;;;;20.20;63.90;;;18.76;34.92;96169.78;10582880;28;1858;-81
2021/05/29 14:00:38;;;;;;;;;;;19.90;66.00;;;18.48;34.40;96173.84;10578412;28;1938;-80
2021/05/29 14:05:41;;;;;;;;;;;19.70;65.30;;;17.92;32.82;96181.53;10564237;28;1774;-79
2021/05/29 14:10:44;;;;;;;;;;;19.20;63.10;;;17.80;31.59;96182.09;10575570;28;2069;-80
2021/05/29 14:15:46;;;;;;;;;;;18.90;62.00;;;17.53;31.78;96179.47;10582835;28;1490;-79
2021/05/29 14:20:48;;;;;;;;;;;18.60;62.00;;;18.10;32.87;96185.16;10575044;28;1890;-81
2021/05/29 14:25:51;;;;;;;;;;;18.70;63.80;;;19.07;32.27;96177.88;10599890;28;1334;-80
2021/05/29 14:30:54;;;;;;;;;;;19.40;63.80;;;19.25;32.60;96177.91;10585547;28;1951;-79
2021/05/29 14:35:58;;;;;;;;;;;19.90;63.90;;;19.67;32.75;96192.72;10572676;28;1858;-79
2021/05/29 14:41:00;;;;;;;;;;;20.60;63.50;;;18.56;35.49;96178.50;10585326;28;2173;-78
2021/05/29 14:46:03;;;;;;;;;;;20.20;65.00;;;17.73;37.90;96194.53;10583966;28;2144;-79
2021/05/29 14:51:18;;;;;;;;;;;19.20;67.60;;;17.66;38.79;96186.78;10571692;28;2123;-82
2021/05/29 14:56:22;;;;;;;;;;;18.70;69.60;;;17.73;37.78;96194.53;10566890;28;2057;-79
2021/05/29 15:01:25;;;;;;;;;;;18.80;68.90;;;18.17;37.42;96193.69;10565084;28;1965;-79
2021/05/29 15:06:27;;;;;;;;;;;19.00;69.10;;;18.07;36.57;96192.06;10558427;28;1457;-81
2021/05/29 15:11:29;;;;;;;;;;;19.00;67.90;;;18.28;35.39;96183.34;10564001;28;2322;-77
2021/05/29 15:16:32;;;;;;;;;;;19.20;67.00;;;17.89;35.97;96195.78;10565486;28;2042;-82
2021/05/29 15:21:35;;;;;;;;;;;19.00;66.40;;;18.63;33.86;96187.81;10580424;27;1882;-81
2021/05/29 15:26:46;;;;;;;;;;;19.10;66.30;;;19.51;33.01;96186.09;10611471;27;1187;-79
2021/05/29 15:32:15;;;;;;;;;;;19.70;65.90;;;18.44;33.75;96189.19;10551207;28;1880;-80
2021/05/29 15:37:28;;;;;;;;;;;19.60;64.10;;;18.16;34.16;96181.22;10588212;28;1973;-80
2021/05/29 15:42:30;;;;;;;;;;;19.20;64.30;;;18.40;34.26;96186.28;10582993;28;1838;-80
2021/05/29 15:47:33;;;;;;;;;;;19.20;65.20;;;17.55;35.43;96191.63;10575055;28;2095;-78
2021/05/29 15:52:37;;;;;;;;;;;18.70;65.40;;;17.15;36.75;96195.28;10586534;28;2154;-80
2021/05/29 15:57:40;;;;;;;;;;;18.30;66.70;;;16.96;38.02;96189.97;10585011;28;2071;-81
2021/05/29 16:02:45;;;;;;;;;;;18.10;67.60;;;16.56;39.32;96203.25;10565003;28;2106;-80
2021/05/29 16:08:13;;;;;;;;;;;17.70;69.00;;;16.53;39.12;96203.84;10607032;27;1215487;-81
2021/05/29 16:13:16;;;;;;;;;;;17.60;69.20;;;16.19;39.69;96217.78;10603142;28;2339;-81
2021/05/29 16:18:19;;;;;;;;;;;17.30;69.80;;;16.75;38.92;96201.28;10555364;28;2008;-82
2021/05/29 16:23:36;;;;;;;;;;;17.50;70.10;;;17.08;39.03;96201.13;10567381;28;1993;-81
2021/05/29 16:28:39;;;;;;;;;;;17.90;69.80;;;16.32;41.60;96218.91;10560579;28;1674;-79
2021/05/29 16:33:42;;;;;;;;;;;17.70;71.30;;;15.88;43.32;96220.19;10581015;28;1397;-82
2021/05/29 16:38:46;;;;;;;;;;;17.10;73.20;;;15.69;43.72;96222.94;10592193;28;1808;-82
2021/05/29 16:43:49;;;;;;;;;;;16.80;73.90;;;15.65;43.28;96233.56;10583768;28;1898;-82
2021/05/29 16:48:51;;;;;;;;;;;18.10;74.90;;;15.38;43.01;96234.19;10588603;28;1282;-82
2021/05/29 16:53:55;;;;;;;;;;;16.50;74.00;;;15.18;44.01;96242.59;10590160;28;1544;-83
2021/05/29 16:58:57;;;;;;;;;;;16.30;74.50;;;15.11;44.25;96250.28;10603001;28;1415;-83
2021/05/29 17:09:49;;;;;;;;;;;16.20;75.50;;;15.07;42.76;96239.22;10600927;28;1299;-80
2021/05/29 17:21:09;;;;;;;;;;;16.10;73.50;;;14.93;41.93;96240.22;10553196;28;1317;-83
2021/05/29 17:26:26;;;;;;;;;;;16.00;72.90;;;14.84;41.96;96245.47;10567956;28;1989;-84
2021/05/29 17:37:16;;;;;;;;;;;15.90;72.90;;;14.62;42.03;96253.28;10545781;28;1307;-84
2021/05/29 17:42:31;;;;;;;;;;;15.80;72.50;;;14.52;42.55;96251.53;10557960;28;1461;-83
2021/05/29 17:52:55;;;;;;;;;;;15.50;73.90;;;14.34;42.93;96253.00;10559449;28;1428;-84
2021/05/29 18:04:01;;;;;;;;;;;15.30;73.80;;;14.15;42.91;96268.34;10536917;28;1980;-81
2021/05/29 18:09:22;;;;;;;;;;;15.20;73.60;;;14.04;43.35;96263.00;10559059;28;1188;-84
2021/05/29 18:14:35;;;;;;;;;;;15.10;74.20;;;13.94;44.49;96263.09;10566795;28;1575;-85
2021/05/29 18:30:55;;;;;;;;;;;14.80;75.10;;;13.57;45.12;96266.34;10545955;28;1535;-86
2021/05/29 18:36:36;;;;;;;;;;;14.70;75.80;;;13.45;45.79;96269.38;10537598;28;1762;-85
2021/05/29 18:42:04;;;;;;;;;;;14.60;76.40;;;13.33;45.95;96279.72;10565990;28;1300;-82
2021/05/29 18:58:32;;;;;;;;;;;14.30;77.10;;;12.90;47.87;96292.81;10559123;28;1541;-84
2021/05/29 19:03:43;;;;;;;;;;;14.10;77.90;;;12.80;48.10;96298.28;10557642;28;1918;-82
2021/05/29 19:09:21;;;;;;;;;;;14.00;78.40;;;12.69;49.13;96304.78;10535980;28;1579;-84
2021/05/29 19:33:05;;;;;;;;;;;13.40;82.30;;;11.89;53.54;96324.22;10373402;28;1484;-84
2021/05/29 19:43:46;;;;;;;;;;;13.20;83.60;;;11.88;52.86;96330.69;10368823;28;1602;-83
2021/05/29 20:16:36;;;;;;;;;;;12.70;87.70;;;11.34;57.32;96363.41;10563481;28;1342;-86
2021/05/29 20:27:28;;;;;;;;;;;12.50;89.20;;;11.11;58.69;96361.16;10563407;28;1948;-83
2021/05/29 20:32:34;;;;;;;;;;;12.40;89.70;;;11.03;58.85;96356.28;10536246;28;1365;-84
2021/05/29 20:37:38;;;;;;;;;;;12.40;90.30;;;10.94;59.43;96361.38;10546068;28;1735;-84
2021/05/29 20:42:43;;;;;;;;;;;12.30;90.70;;;10.83;60.59;96359.69;10527692;28;1402;-80
2021/05/29 20:48:00;;;;;;;;;;;12.20;91.40;;;10.74;59.92;96358.53;10543825;28;1890;-83
2021/05/29 20:53:09;;;;;;;;;;;12.10;91.80;;;10.66;61.33;96370.59;10526752;28;1611;-83
2021/05/29 20:58:12;;;;;;;;;;;12.00;92.70;;;10.52;61.98;96372.13;10521507;28;1956;-84
2021/05/29 21:03:15;;;;;;;;;;;11.80;93.50;;;10.44;61.84;96372.59;10532417;28;1917;-83
2021/05/29 21:08:18;;;;;;;;;;;11.70;93.80;;;10.34;63.25;96367.94;10517559;28;2153;-82
2021/05/29 21:13:24;;;;;;;;;;;11.70;94.80;;;10.32;62.78;96374.66;10521706;28;2161;-83
2021/05/29 21:23:59;;;;;;;;;;;11.60;95.00;;;10.23;62.35;96369.75;10494137;28;1885;-83
2021/05/29 21:29:04;;;;;;;;;;;11.50;95.40;;;10.22;62.16;96372.66;10494518;28;1957;-83
2021/05/29 21:34:07;;;;;;;;;;;11.50;95.40;;;10.17;62.35;96370.72;10499772;28;1647;-83
2021/05/29 21:39:11;;;;;;;;;;;11.50;95.60;;;10.03;62.97;96367.66;10530833;28;1886;-84
2021/05/29 21:44:16;;;;;;;;;;;11.40;96.00;;;9.96;63.98;96388.56;10529816;28;2043;-82
2021/05/29 21:49:25;;;;;;;;;;;11.20;97.10;;;9.89;65.30;96382.59;10530486;28;2141;-83
2021/05/29 21:54:27;;;;;;;;;;;11.20;98.30;;;9.87;65.23;96383.91;10529734;28;1599;-83
2021/05/29 21:59:30;;;;;;;;;;;11.10;98.40;;;9.92;64.34;96381.25;10509517;28;1389;-84
2021/05/29 22:04:33;;;;;;;;;;;11.10;98.80;;;9.92;64.90;96390.13;10526023;28;1406;-84
2021/05/29 22:09:43;;;;;;;;;;;11.10;99.10;;;9.86;66.19;96388.47;10504345;28;2123;-83
2021/05/29 22:20:31;;;;;;;;;;;11.00;99.90;;;9.71;66.63;96386.44;10494485;28;1963;-81
2021/05/29 22:30:58;;;;;;;;;;;10.80;99.90;;;9.44;68.21;96390.97;10498414;28;2074;-81
2021/05/29 22:36:02;;;;;;;;;;;10.70;99.90;;;9.37;68.35;96393.03;10477959;28;1813;-82
2021/05/29 22:41:07;;;;;;;;;;;10.60;99.90;;;9.40;67.93;96400.56;10488382;28;1916;-82
2021/05/29 22:46:10;;;;;;;;;;;10.60;99.90;;;9.39;68.11;96402.44;10484983;28;1943;-83
2021/05/29 22:51:13;;;;;;;;;;;10.60;99.90;;;9.38;71.05;96400.81;10498015;28;2026;-83
2021/05/29 22:56:15;;;;;;;;;;;10.60;99.90;;;9.24;72.20;96414.88;10482807;28;1742;-84
2021/05/29 23:01:17;;;;;;;;;;;10.50;99.90;;;9.10;72.68;96401.03;10496839;28;2115;-82
2021/05/29 23:06:20;;;;;;;;;;;10.40;99.90;;;9.03;72.78;96406.53;10482376;28;2043;-82
2021/05/29 23:11:24;;;;;;;;;;;10.30;99.90;;;8.97;73.60;96398.69;10502074;28;2279;-83
2021/05/29 23:16:26;;;;;;;;;;;10.20;99.90;;;8.87;74.12;96402.06;10480787;28;1918;-86
2021/05/29 23:21:29;;;;;;;;;;;10.20;99.90;;;8.77;74.65;96396.53;10483928;28;2081;-83
2021/05/29 23:26:32;;;;;;;;;;;10.10;99.90;;;8.60;75.10;96399.25;10503730;28;2143;-83
2021/05/29 23:31:35;;;;;;;;;;;9.90;99.90;;;8.61;75.89;96399.00;10514819;28;1576;-83
2021/05/29 23:36:37;;;;;;;;;;;11.10;99.90;;;8.53;76.44;96401.31;10492484;28;2025;-83
2021/05/29 23:41:40;;;;;;;;;;;9.80;99.90;;;8.55;77.30;96405.34;10473312;28;2134;-84
2021/05/29 23:46:42;;;;;;;;;;;10.80;99.90;;;8.49;76.29;96400.97;10509649;28;1902;-83
2021/05/29 23:51:45;;;;;;;;;;;9.80;99.90;;;8.40;76.39;96391.72;10487673;28;2001;-83
2021/05/29 23:56:47;;;;;;;;;;;10.60;99.90;;;8.28;76.81;96396.31;10501116;28;1722;-84
